WetterOnline ( http://www.wetteronline.de )

Wetter aktuell Trier

Aktuelles Wetter: Trier/Petrisberg (273m)

6-stündlich | Neueste Meldungen
Ortszeit Temperatur Wetter
Do, 16.08. 8:00 12.5° C wolkenlos
Do, 16.08. 2:00 14.7° C wolkig
Mi, 15.08. 20:00 22.6° C bedeckt
Mi, 15.08. 14:00 22.6° C bewölkt
Mi, 15.08. 8:00 15.2° C bedeckt
Mi, 15.08. 2:00 16.3° C wolkenlos
Di, 14.08. 20:00 20.9° C bewölkt
Di, 14.08. 14:00 19.2° C bedeckt
Ortszeit Temperatur Wetter
Do, 16.08. 11:30 22.8° C fast wolkenlos
Do, 16.08. 11:20 22.8° C fast wolkenlos
Do, 16.08. 11:10 22.4° C wolkenlos
Do, 16.08. 11:00 20.6° C fast wolkenlos
Do, 16.08. 10:50 20.6° C fast wolkenlos
Do, 16.08. 10:40 20.6° C leicht bewölkt
Do, 16.08. 10:30 18.4° C fast wolkenlos
Do, 16.08. 10:00 18.2° C wolkenlos
Do, 16.08. 9:30 16.5° C wolkenlos
Do, 16.08. 9:00 15.0° C wolkenlos
Do, 16.08. 8:30 14.0° C wolkenlos
Do, 16.08. 8:00 12.5° C wolkenlos
Ortszeit Relative Feuchte Sichtweite
Do, 16.08. 8:00 97% 9 km
Do, 16.08. 2:00 91% 40 km
Mi, 15.08. 20:00 54% 70 km
Mi, 15.08. 14:00 53% 70 km
Mi, 15.08. 8:00 94% 20 km
Mi, 15.08. 2:00 90% 35 km
Di, 14.08. 20:00 65% 65 km
Di, 14.08. 14:00 70% 65 km
Ortszeit Relative Feuchte Sichtweite
Do, 16.08. 11:30 54% 50 km
Do, 16.08. 11:20 54% -
Do, 16.08. 11:10 57% -
Do, 16.08. 11:00 61% 45 km
Do, 16.08. 10:50 61% -
Do, 16.08. 10:40 65% -
Do, 16.08. 10:30 70% 45 km
Do, 16.08. 10:00 75% 45 km
Do, 16.08. 9:30 81% 40 km
Do, 16.08. 9:00 82% 35 km
Do, 16.08. 8:30 92% 23 km
Do, 16.08. 8:00 97% 9 km
Ortszeit Niederschlagsmenge Niederschlagsart
Do, 16.08. 8:00 0.0 l/m2 in 12 Std. -
Do, 16.08. 2:00 0.0 l/m2 in 6 Std. -
Mi, 15.08. 20:00 0.0 l/m2 in 12 Std. -
Mi, 15.08. 14:00 0.0 l/m2 in 6 Std. -
Mi, 15.08. 8:00 0.0 l/m2 in 12 Std. -
Mi, 15.08. 2:00 0.0 l/m2 in 6 Std. -
Di, 14.08. 20:00 0.1 l/m2 in 12 Std. Regen
Di, 14.08. 14:00 0.0 l/m2 in 6 Std. -
Ortszeit Niederschlagsmenge Niederschlagsart
Do, 16.08. 11:30 0.0 l/m2 in 1 Std. -
Do, 16.08. 11:20 keine Meldung -
Do, 16.08. 11:10 keine Meldung -
Do, 16.08. 11:00 0.0 l/m2 in 1 Std. -
Do, 16.08. 10:50 keine Meldung -
Do, 16.08. 10:40 keine Meldung -
Do, 16.08. 10:30 0.0 l/m2 in 1 Std. -
Do, 16.08. 10:00 0.0 l/m2 in 1 Std. -
Do, 16.08. 9:30 0.0 l/m2 in 1 Std. -
Do, 16.08. 9:00 0.0 l/m2 in 1 Std. -
Do, 16.08. 8:30 0.0 l/m2 in 1 Std. -
Do, 16.08. 8:00 0.0 l/m2 in 1 Std. -
Ortszeit Stärke Spitze Richtung
km/h Bft. km/h Grad Sektor
Do, 16.08. 8:00 4 1 11 40° NO
Do, 16.08. 2:00 4 1 14 230° SW
Mi, 15.08. 20:00 4 1 22 200° S
Mi, 15.08. 14:00 11 2 22 210° SW
Mi, 15.08. 8:00 6 1 11 180° S
Mi, 15.08. 2:00 6 1 19 190° S
Di, 14.08. 20:00 13 3 26 260° W
Di, 14.08. 14:00 11 2 26 230° SW
Ortszeit Stärke Spitze Richtung
km/h Bft. km/h Grad Sektor
Do, 16.08. 11:30 11 2 22 240° SW
Do, 16.08. 11:20 11 2 - 240° SW
Do, 16.08. 11:10 11 2 - 240° SW
Do, 16.08. 11:00 7 2 14 250° W
Do, 16.08. 10:50 7 2 - 250° W
Do, 16.08. 10:40 7 2 - 250° W
Do, 16.08. 10:30 4 1 7 290° W
Do, 16.08. 10:00 6 1 7 200° S
Do, 16.08. 9:30 4 1 7 210° SW
Do, 16.08. 9:00 2 1 6 310° NW
Do, 16.08. 8:30 2 1 6 150° SO
Do, 16.08. 8:00 4 1 11 40° NO
Ortszeit Untergrenze Bedeckung Gattung
total tief tief mittel hoch
Do, 16.08. 8:00 - 0/8 0/8 - - -
Do, 16.08. 2:00 2400 m 8/8 2/8 - - -
Mi, 15.08. 20:00 1410 m 8/8 8/8 - - -
Mi, 15.08. 14:00 1050 m 7/8 7/8 - - -
Mi, 15.08. 8:00 1170 m 8/8 8/8 - - -
Mi, 15.08. 2:00 - 0/8 0/8 - - -
Di, 14.08. 20:00 1110 m 7/8 7/8 - - -
Di, 14.08. 14:00 630 m 8/8 8/8 - - -
Ortszeit Bedeckungsgrad in Achtel und Wolkenuntergrenze
Do, 16.08. 11:30 2(9000m)
Do, 16.08. 11:20 2(9000m)
Do, 16.08. 11:10 keine Wolken
Do, 16.08. 11:00 2(10500m)
Do, 16.08. 10:50 2(10500m)
Do, 16.08. 10:40 1(9000m) 3(10500m)
Do, 16.08. 10:30 2(9000m) 4(10500m)
Do, 16.08. 10:00 keine Wolken
Do, 16.08. 9:30 keine Wolken
Do, 16.08. 9:00 keine Wolken
Do, 16.08. 8:30 keine Wolken
Do, 16.08. 8:00 keine Wolken
Ortszeit Luftdruck NN (hPa) Tendenz (hPa in 3 Std.)
Do, 16.08. 8:00 1019 - 0,4
Do, 16.08. 2:00 1020 - 0,3
Mi, 15.08. 20:00 1019 - 0,6
Mi, 15.08. 14:00 1020 - 0,3
Mi, 15.08. 8:00 1021 + 0,8
Mi, 15.08. 2:00 1020 + 0,6
Di, 14.08. 20:00 1017 + 0,5
Di, 14.08. 14:00 1017 + 1,0
Ortszeit Luftdruck NN (hPa) Tendenz (hPa in 3 Std.)
Do, 16.08. 11:30 1017 - 0,6
Do, 16.08. 11:20 1017 keine Meldung
Do, 16.08. 11:10 1017 keine Meldung
Do, 16.08. 11:00 1017 - 0,5
Do, 16.08. 10:50 1017 keine Meldung
Do, 16.08. 10:40 1017 keine Meldung
Do, 16.08. 10:30 1018 - 0,6
Do, 16.08. 10:00 1018 - 0,5
Do, 16.08. 9:30 1018 - 0,6
Do, 16.08. 9:00 1018 - 0,4
Do, 16.08. 8:30 1018 - 0,5
Do, 16.08. 8:00 1019 - 0,4
Ortszeit Schneehöhe (cm)
Do, 16.08. 8:00 -
Do, 16.08. 2:00 -
Mi, 15.08. 20:00 -
Mi, 15.08. 14:00 -
Mi, 15.08. 8:00 -
Mi, 15.08. 2:00 -
Di, 14.08. 20:00 -
Di, 14.08. 14:00 -
Ortszeit Schneehöhe (cm)
Do, 16.08. 11:30 -
Do, 16.08. 11:20 -
Do, 16.08. 11:10 -
Do, 16.08. 11:00 -
Do, 16.08. 10:50 -
Do, 16.08. 10:40 -
Do, 16.08. 10:30 -
Do, 16.08. 10:00 -
Do, 16.08. 9:30 -
Do, 16.08. 9:00 -
Do, 16.08. 8:30 -
Do, 16.08. 8:00 -
Link zu dieser Seite / Seite empfehlen

Das Wetter in ...